AirNav   Pilot Hours Calculator
 
 986 users online  

6NC4 Brown Airport
Taylorsville, North Carolina, USA

GOING TO TAYLORSVILLE?


FAA INFORMATION EFFECTIVE 01 DECEMBER 2022

Location

FAA Identifier: 6NC4
Lat/Long: 35-54-20.4760N 081-08-22.2930W
35-54.341267N 081-08.371550W
35.9056878,-81.1395258
(estimated)
Elevation: 1170 ft. / 357 m (estimated)
Variation: 05W (1980)
From city: 2 miles SE of TAYLORSVILLE, NC
Time zone: UTC -5 (UTC -4 during Daylight Saving Time)
Zip code: 28681

Airport Operations

Airport use: Private use. Permission required prior to landing
Activation date: 11/1986
Control tower: no
ARTCC: ATLANTA CENTER
FSS: RALEIGH FLIGHT SERVICE STATION
Attendance: IREG
Wind indicator: yes
Segmented circle: no

Airport Communications

WX AWOS-3 at SVH (12 nm SE): 119.225 (704-873-1978)
WX ASOS at HKY (16 nm SW): 118.325 (828-322-2996)
WX AWOS-3 at UKF (19 nm N): 126.625 (336-696-3788)

Nearby radio navigation aids

VOR radial/distance  VOR name  Freq  Var
BZMr072/5.4BARRETTS MOUNTAIN VOR/DME113.7506W

 
NDB name  Hdg/Dist  Freq  Var  ID
TAWBA054/10.833206WHK .... -.-
FIDDLERS073/28.439107WFIQ ..-. .. --.-
ASHEE171/32.941007WJUH .--- ..- ....
HEMLOCK114/38.932002WBAR -... .- .-.

Airport Services

Runway Information

Runway 6/24

Dimensions: 1400 x 40 ft. / 427 x 12 m
Surface: turf
RUNWAY 6  RUNWAY 24
Traffic pattern: rightleft
Obstructions: 30 ft. pline, 300 ft. from runwaynone

Runway 16/34

Dimensions: 1200 x 40 ft. / 366 x 12 m
Surface: turf
RUNWAY 16  RUNWAY 34
Traffic pattern: rightleft
Obstructions: none30 ft. pline, 300 ft. from runway

Airport Ownership and Management from official FAA records

Ownership: Privately-owned
Owner: SCOTT BROWN
45 AIRPORT FARM LANE
TAYLORSVILLE, NC 28681
Phone 828-320-2655
Manager: SCOTT BROWN
45 AIRPORT FARM LANE
TAYLORSVILLE, NC 28681
Phone 828-320-2655

Airport Operational Statistics

Aircraft based on the field: 1
Single engine airplanes: 1
    

Additional Remarks

FOR CD CTC ATLANTA ARTCC AT 770-210-7692.

Instrument Procedures

There are no published instrument procedures at 6NC4.

Some nearby airports with instrument procedures:

KSVH - Statesville Regional Airport (12 nm SE)
KHKY - Hickory Regional Airport (16 nm SW)
KUKF - Wilkes County Airport (19 nm N)
14A - Lake Norman Airpark (21 nm SE)
KMRN - Foothills Regional Airport (24 nm W)
 
Loc | Ops | Rwys | IFR | FBO | Links
Com | Nav | Svcs | Stats | Notes
Area around 6NC4 (Brown Airport)
 
Road maps at: MapQuest Bing Google
 
Aerial photo
No photo
 
Sectional chart

 
Airport distance calculator
Flying to Brown Airport? Find the distance to fly.

From to 6NC4

Sunrise and sunset
Times for 06-Dec-2022
 Local
(UTC-5)
 Zulu
(UTC)
Morning civil twilight06:5411:54
Sunrise07:2212:22
Sunset17:0922:09
Evening civil twilight17:3822:38

Current date and time
Zulu (UTC)  07-Dec-2022 04:44:54
Local (UTC-5)  06-Dec-2022 23:44:54
 
METAR
KSVH 
13nm SE 
070435Z AUTO 28003KT 1/2SM FG OVC002 08/08 A3026 RMK AO2 P0001 T00830080
KHKY 
15nm SW 
070353Z AUTO 00000KT 10SM FG OVC002 08/08 A3025 RMK AO2 SLP237 T00780078
KUKF 
19nm N 
070435Z AUTO 00000KT 1/4SM FG OVC003 06/06 A3030 RMK AO2
KMRN 
24nm W 
070435Z AUTO 00000KT 1SM BR OVC001 08/08 A3029 RMK AO2 T00830080
KIPJ 
25nm S 
070435Z AUTO 00000KT 1 3/4SM BR OVC004 09/09 A3027 RMK AO2 T00860086
TAF
KHKY 
15nm SW 
070227Z 0702/0724 VRB02KT 2SM -RADZ BR OVC002 FM070400 00000KT 1/4SM -DZ FG VCSH OVC001 FM071400 VRB02KT 1/2SM -RADZ OVC002 FM071700 21004KT 2SM BR VCSH OVC006 FM072200 23003KT 4SM BR OVC008
NOTAMs
Click for the latest NOTAMs
NOTAMs are issued by the DoD/FAA and will open in a separate window not controlled by AirNav.

 

 
 

Would you like to see your business listed on this page?

 If your business provides an interesting product or service to pilots, flight crews, aircraft, or users of the Brown Airport, you should consider listing it here.  To start the listing process, click on the button below
 
Add a business
 

Other Pages about Brown Airport

Update a link
 
Copyright © AirNav, LLC. All rights reserved. Privacy Policy  Contact